createdAt,value
2022-12-28T00:03:32.307Z,100237.30
2022-12-28T00:13:40.039Z,100237.51
2022-12-28T00:23:46.096Z,100233.95
2022-12-28T00:33:55.485Z,100236.58
2022-12-28T00:44:01.478Z,100234.34
2022-12-28T00:54:07.728Z,100242.35
2022-12-28T01:04:14.097Z,100242.56
2022-12-28T01:14:19.988Z,100240.89
2022-12-28T01:24:25.879Z,100226.86
2022-12-28T01:34:31.861Z,100219.48
2022-12-28T01:44:48.868Z,100216.41
2022-12-28T01:55:00.731Z,100195.67
2022-12-28T02:05:08.107Z,100178.17
2022-12-28T02:15:17.092Z,100169.83
2022-12-28T02:26:00.657Z,100156.17
2022-12-28T02:36:18.240Z,100150.27
2022-12-28T02:46:45.281Z,100151.25
2022-12-28T02:56:57.620Z,100146.17
2022-12-28T03:07:28.723Z,100130.23
2022-12-28T03:17:54.579Z,100120.04
2022-12-28T03:28:20.237Z,100102.99
2022-12-28T03:38:31.622Z,100094.35
2022-12-28T03:48:41.722Z,100087.21
2022-12-28T03:58:47.916Z,100080.37
2022-12-28T04:08:53.811Z,100069.89
2022-12-28T04:18:59.645Z,100059.27
2022-12-28T04:29:05.707Z,100051.40
2022-12-28T04:39:11.943Z,100049.19
2022-12-28T04:49:18.035Z,100035.66
2022-12-28T04:59:24.215Z,100039.45
2022-12-28T05:09:30.066Z,100037.39
2022-12-28T05:19:36.077Z,100031.16
2022-12-28T05:29:41.965Z,100022.12
2022-12-28T05:39:47.868Z,100014.64
2022-12-28T05:49:53.821Z,100005.45
2022-12-28T05:59:59.889Z,99993.23
2022-12-28T06:10:06.277Z,99995.92
2022-12-28T06:20:13.491Z,99984.66
2022-12-28T06:30:19.383Z,99983.25
2022-12-28T06:40:39.495Z,99976.28
2022-12-28T06:50:59.855Z,99957.70
2022-12-28T07:01:10.956Z,99948.73
2022-12-28T07:11:19.580Z,99948.97
2022-12-28T07:21:27.422Z,99940.23
2022-12-28T07:31:40.021Z,99926.56
2022-12-28T07:41:50.047Z,99917.75
2022-12-28T07:51:55.922Z,99911.13
2022-12-28T08:02:02.156Z,99907.78
2022-12-28T08:12:08.673Z,99900.72
2022-12-28T08:22:14.601Z,99886.14
2022-12-28T08:32:20.406Z,99879.33
2022-12-28T08:42:26.495Z,99878.99
2022-12-28T08:52:32.702Z,99896.05
2022-12-28T09:02:38.563Z,99903.30
2022-12-28T09:12:44.737Z,99898.25
2022-12-28T09:22:50.467Z,99891.19
2022-12-28T09:33:13.051Z,99886.46
2022-12-28T09:43:19.829Z,99877.70
2022-12-28T09:53:31.646Z,99867.00
2022-12-28T10:03:40.141Z,99853.61
2022-12-28T10:13:54.623Z,99812.52
2022-12-28T10:34:36.727Z,99779.52
2022-12-28T10:44:42.950Z,99768.77
2022-12-28T10:54:53.176Z,99754.17
2022-12-28T11:05:22.555Z,99742.02
2022-12-28T11:15:31.963Z,99729.29
2022-12-28T11:25:39.239Z,99699.73
2022-12-28T11:35:46.937Z,99670.72
2022-12-28T11:45:56.038Z,99650.63
2022-12-28T11:56:06.828Z,99635.76
2022-12-28T12:06:12.787Z,99615.75
2022-12-28T12:16:28.621Z,99588.94
2022-12-28T12:26:40.038Z,99565.13
2022-12-28T12:37:11.151Z,99565.64
2022-12-28T12:47:39.427Z,99550.28
2022-12-28T12:57:55.410Z,99534.45
2022-12-28T13:08:02.746Z,99518.48
2022-12-28T13:18:43.921Z,99502.33
2022-12-28T13:28:51.396Z,99505.70
2022-12-28T13:39:07.676Z,99494.02
2022-12-28T13:49:14.509Z,99485.48
2022-12-28T13:59:22.614Z,99477.64
2022-12-28T14:09:29.121Z,99463.63
2022-12-28T14:19:35.500Z,99446.29
2022-12-28T14:29:42.197Z,99438.13
2022-12-28T14:39:49.636Z,99434.32
2022-12-28T14:50:00.942Z,99421.73
2022-12-28T15:00:23.458Z,99417.41
2022-12-28T15:10:29.374Z,99406.86
2022-12-28T15:20:36.635Z,99416.19
2022-12-28T15:30:46.003Z,99411.47
2022-12-28T15:40:57.163Z,99403.29
2022-12-28T15:51:03.219Z,99401.98
2022-12-28T16:01:09.552Z,99409.62
2022-12-28T16:11:17.855Z,99397.87
2022-12-28T16:21:23.952Z,99401.47
2022-12-28T16:31:31.396Z,99408.59
2022-12-28T16:41:37.849Z,99413.67
2022-12-28T16:51:45.306Z,99416.77
2022-12-28T17:01:51.583Z,99407.59
2022-12-28T17:11:57.725Z,99408.50
2022-12-28T17:22:04.091Z,99405.55
2022-12-28T17:32:10.693Z,99403.98
2022-12-28T17:42:16.646Z,99390.48
2022-12-28T17:52:25.104Z,99394.40
2022-12-28T18:02:31.031Z,99402.77
2022-12-28T18:12:37.174Z,99400.95
2022-12-28T18:22:43.055Z,99402.45
2022-12-28T18:32:48.996Z,99397.27
2022-12-28T18:42:54.881Z,99398.85
2022-12-28T18:53:00.954Z,99390.70
2022-12-28T19:03:07.191Z,99380.63
2022-12-28T19:13:13.286Z,99364.89
2022-12-28T19:23:19.220Z,99365.48
2022-12-28T19:33:25.526Z,99368.55
2022-12-28T19:43:31.623Z,99372.02
2022-12-28T19:53:38.033Z,99369.66
2022-12-28T20:03:44.986Z,99367.49
2022-12-28T20:13:54.152Z,99364.36
2022-12-28T20:24:01.128Z,99360.70
2022-12-28T20:34:07.298Z,99353.45
2022-12-28T20:44:15.754Z,99354.05
2022-12-28T20:54:22.594Z,99341.88
2022-12-28T21:04:29.403Z,99338.09
2022-12-28T21:14:35.592Z,99315.59
2022-12-28T21:24:42.022Z,99310.94
2022-12-28T21:34:47.902Z,99310.04
2022-12-28T21:44:54.010Z,99306.58
2022-12-28T21:55:20.412Z,99303.21
2022-12-28T22:05:44.016Z,99285.71
2022-12-28T22:15:52.634Z,99282.91
2022-12-28T22:25:58.660Z,99281.08
2022-12-28T22:36:13.955Z,99273.05
2022-12-28T22:46:20.799Z,99273.91
2022-12-28T22:56:26.929Z,99267.94
2022-12-28T23:06:33.190Z,99247.61
2022-12-28T23:16:39.026Z,99234.81
2022-12-28T23:27:02.504Z,99230.14
2022-12-28T23:37:08.561Z,99229.70
2022-12-28T23:47:14.761Z,99226.40
2022-12-28T23:57:20.745Z,99224.50
